Time;durP1;ratioP1;P1;durP2;ratioP2;P2;SDS_P1;SDS_P2;PMS_P1;PMS_P2;Temp;Humidity;BMP_temperature;BMP_pressure;BME280_temperature;BME280_humidity;BME280_pressure;Samples;Min_cycle;Max_cycle;Signal;HPM_P1;HPM_P2
2022/12/06 00:01:31;;;;;;;5.13;3.97;;;3.10;99.90;;;;;;5047540;28;20255;-88
2022/12/06 00:04:00;;;;;;;5.00;4.10;;;3.20;99.90;;;;;;5051732;28;20230;-89
2022/12/06 00:06:30;;;;;;;4.37;3.97;;;3.20;99.90;;;;;;5035094;28;20615;-88
2022/12/06 00:09:22;;;;;;;4.53;3.70;;;3.20;99.90;;;;;;5042139;28;20258;-89
2022/12/06 00:11:50;;;;;;;6.43;4.07;;;3.20;99.90;;;;;;5049470;28;20210;-89
2022/12/06 00:14:19;;;;;;;4.67;4.20;;;3.30;99.90;;;;;;5049696;28;20205;-88
2022/12/06 00:16:47;;;;;;;5.60;4.30;;;3.40;99.90;;;;;;5053074;28;20198;-88
2022/12/06 00:19:15;;;;;;;6.10;4.27;;;3.40;99.90;;;;;;5038477;28;20229;-89
2022/12/06 00:21:43;;;;;;;5.60;4.63;;;3.40;99.90;;;;;;5047621;28;20206;-88
2022/12/06 00:24:13;;;;;;;4.90;4.40;;;3.30;99.90;;;;;;5051875;28;20256;-88
2022/12/06 00:26:43;;;;;;;5.77;4.57;;;3.20;99.90;;;;;;5053463;28;20209;-89
2022/12/06 00:29:20;;;;;;;5.23;4.50;;;3.10;99.90;;;;;;5052333;28;20335;-88
2022/12/06 00:31:48;;;;;;;5.83;4.47;;;3.10;99.90;;;;;;5049178;28;20605;-88
2022/12/06 00:34:15;;;;;;;5.43;4.60;;;3.00;99.90;;;;;;5057493;28;20202;-88
2022/12/06 00:36:43;;;;;;;6.53;4.40;;;3.00;99.90;;;;;;5051548;28;20202;-88
2022/12/06 00:39:12;;;;;;;5.10;4.60;;;2.90;99.90;;;;;;5057451;28;20231;-89
2022/12/06 00:41:39;;;;;;;5.23;4.50;;;2.90;99.90;;;;;;5049163;28;20210;-90
2022/12/06 00:44:07;;;;;;;6.43;4.57;;;2.90;99.90;;;;;;5045742;28;20214;-89
2022/12/06 00:46:36;;;;;;;5.70;4.57;;;2.90;99.90;;;;;;5052904;28;20353;-89
2022/12/06 00:49:05;;;;;;;5.37;4.50;;;2.90;99.90;;;;;;5052689;28;20214;-88
2022/12/06 00:51:34;;;;;;;6.30;4.80;;;2.90;99.90;;;;;;5043175;28;20289;-88
2022/12/06 00:54:01;;;;;;;5.33;4.60;;;2.90;99.90;;;;;;5051971;28;20298;-89
2022/12/06 00:56:28;;;;;;;5.53;4.57;;;2.90;99.90;;;;;;5051844;28;20206;-88
2022/12/06 00:58:58;;;;;;;5.40;4.47;;;2.80;99.90;;;;;;5051530;28;20218;-88
2022/12/06 01:01:27;;;;;;;5.77;4.47;;;2.80;99.90;;;;;;5034682;28;20256;-88
2022/12/06 01:03:58;;;;;;;5.43;4.70;;;2.80;99.90;;;;;;5055534;28;20229;-89
2022/12/06 01:06:27;;;;;;;6.03;4.87;;;2.80;99.90;;;;;;5058431;28;20206;-89
2022/12/06 01:08:55;;;;;;;5.37;4.37;;;2.80;99.90;;;;;;5048764;28;20206;-88
2022/12/06 01:11:22;;;;;;;5.43;4.40;;;2.70;99.90;;;;;;5055744;28;20205;-90
2022/12/06 01:13:51;;;;;;;6.50;5.40;;;2.70;99.90;;;;;;5050792;28;20209;-88
2022/12/06 01:16:22;;;;;;;5.40;4.70;;;2.70;99.90;;;;;;5053241;28;20209;-88
2022/12/06 01:18:54;;;;;;;5.63;4.90;;;2.60;99.90;;;;;;5051167;28;20202;-88
2022/12/06 01:21:24;;;;;;;8.10;4.67;;;2.70;99.90;;;;;;5055883;28;20212;-91
2022/12/06 01:23:53;;;;;;;5.67;4.80;;;2.80;99.90;;;;;;5052054;28;20218;-89
2022/12/06 01:26:22;;;;;;;5.83;4.90;;;2.90;99.90;;;;;;5056825;28;20211;-88
2022/12/06 01:28:49;;;;;;;5.97;4.63;;;2.90;99.90;;;;;;5049792;28;20212;-88
2022/12/06 01:31:17;;;;;;;5.97;4.70;;;2.80;99.90;;;;;;5045815;28;20202;-88
2022/12/06 01:33:44;;;;;;;4.97;4.33;;;2.80;99.90;;;;;;5051179;28;20220;-89
2022/12/06 01:36:16;;;;;;;5.10;4.60;;;2.80;99.90;;;;;;5056094;28;20232;-88
2022/12/06 01:38:48;;;;;;;5.27;4.77;;;2.80;99.90;;;;;;5043651;28;20198;-88
2022/12/06 01:41:15;;;;;;;6.57;5.23;;;2.60;99.90;;;;;;5052562;28;20209;-90
2022/12/06 01:43:43;;;;;;;8.30;5.20;;;2.60;99.90;;;;;;5050926;28;20222;-89
2022/12/06 01:46:31;;;;;;;6.17;4.73;;;2.50;99.90;;;;;;5044651;28;21038;-88
2022/12/06 01:49:07;;;;;;;5.63;5.07;;;2.40;99.90;;;;;;5051761;28;20208;-88
2022/12/06 01:51:35;;;;;;;6.53;5.00;;;2.30;99.90;;;;;;5048524;28;20220;-87
2022/12/06 01:54:06;;;;;;;6.60;5.70;;;2.30;99.90;;;;;;5046753;28;20304;-90
2022/12/06 01:56:33;;;;;;;5.23;4.70;;;2.30;99.90;;;;;;5050382;28;20209;-89
2022/12/06 01:59:01;;;;;;;6.53;4.90;;;2.30;99.90;;;;;;5055301;28;20219;-88
2022/12/06 02:01:30;;;;;;;7.30;5.20;;;2.30;99.90;;;;;;5050328;28;20292;-89
2022/12/06 02:03:59;;;;;;;8.43;5.10;;;2.20;99.90;;;;;;5054848;28;20229;-88
2022/12/06 02:06:27;;;;;;;6.57;5.00;;;2.10;99.90;;;;;;5056561;28;20202;-91
2022/12/06 02:08:56;;;;;;;7.20;5.37;;;2.00;99.90;;;;;;5049490;28;20304;-89
2022/12/06 02:11:24;;;;;;;7.27;5.23;;;2.00;99.90;;;;;;5054909;28;20208;-89
2022/12/06 02:13:51;;;;;;;6.57;5.50;;;2.00;99.90;;;;;;5047190;28;20250;-88
2022/12/06 02:16:36;;;;;;;6.37;5.17;;;2.20;99.90;;;;;;5056751;28;20750;-88
2022/12/06 02:19:19;;;;;;;6.07;4.90;;;2.30;99.90;;;;;;5051239;28;20206;-88
2022/12/06 02:21:52;;;;;;;7.43;5.07;;;2.20;99.90;;;;;;5052246;28;20655;-89
2022/12/06 02:24:39;;;;;;;7.03;5.33;;;2.10;99.90;;;;;;5045822;28;20226;-88
2022/12/06 02:27:29;;;;;;;6.03;5.20;;;2.10;99.90;;;;;;5045564;28;20210;-88
2022/12/06 02:30:07;;;;;;;6.10;5.43;;;2.10;99.90;;;;;;5047342;28;20715;-89
2022/12/06 02:32:42;;;;;;;6.07;5.10;;;2.10;99.90;;;;;;5049538;28;20644;-88
2022/12/06 02:35:14;;;;;;;5.80;4.93;;;2.20;99.90;;;;;;5050752;28;20201;-89
2022/12/06 02:37:46;;;;;;;6.83;5.30;;;2.30;99.90;;;;;;5048232;28;20202;-90
2022/12/06 02:40:17;;;;;;;6.83;5.63;;;2.40;99.90;;;;;;5056992;28;20211;-88
2022/12/06 02:42:50;;;;;;;6.80;5.60;;;2.20;99.90;;;;;;5048990;28;20316;-93
2022/12/06 02:45:21;;;;;;;7.23;5.23;;;2.10;99.90;;;;;;5052245;28;20209;-89
2022/12/06 02:47:52;;;;;;;8.53;5.87;;;2.00;99.90;;;;;;5042898;28;20685;-88
2022/12/06 02:50:23;;;;;;;6.40;5.33;;;1.90;99.90;;;;;;5049772;28;20204;-88
2022/12/06 02:52:54;;;;;;;7.97;5.40;;;1.90;99.90;;;;;;5044307;28;20209;-89
2022/12/06 02:55:23;;;;;;;6.70;5.67;;;1.90;99.90;;;;;;5033960;28;20209;-88
2022/12/06 02:57:53;;;;;;;7.40;5.77;;;1.80;99.90;;;;;;5044724;28;20254;-88
2022/12/06 03:00:33;;;;;;;6.93;5.70;;;1.70;99.90;;;;;;5034648;28;20676;-88
2022/12/06 03:03:15;;;;;;;7.87;6.10;;;1.90;99.90;;;;;;5047747;28;20225;-88
2022/12/06 03:05:57;;;;;;;8.07;6.27;;;1.90;99.90;;;;;;5051119;28;20212;-89
2022/12/06 03:08:34;;;;;;;6.77;5.93;;;1.80;99.90;;;;;;5052482;28;20205;-88
2022/12/06 03:11:03;;;;;;;7.67;6.00;;;1.90;99.90;;;;;;5053365;28;20205;-88
2022/12/06 03:13:34;;;;;;;6.80;6.07;;;1.80;99.90;;;;;;5049256;28;20204;-88
2022/12/06 03:16:08;;;;;;;8.83;6.33;;;1.80;99.90;;;;;;5031536;28;20213;-88
2022/12/06 03:18:42;;;;;;;6.50;5.53;;;1.70;99.90;;;;;;5051093;28;20206;-89
2022/12/06 03:21:12;;;;;;;7.73;6.07;;;1.60;99.90;;;;;;5054731;28;20206;-88
2022/12/06 03:23:43;;;;;;;7.93;6.10;;;1.60;99.90;;;;;;5050705;28;20595;-88
2022/12/06 03:26:13;;;;;;;7.90;6.03;;;1.60;99.90;;;;;;5051650;28;20198;-88
2022/12/06 03:28:41;;;;;;;9.70;6.37;;;1.60;99.90;;;;;;5048800;28;20281;-88
2022/12/06 03:31:13;;;;;;;6.23;5.60;;;1.60;99.90;;;;;;5023956;28;20206;-88
2022/12/06 03:33:44;;;;;;;7.53;5.63;;;1.50;99.90;;;;;;5046285;28;20203;-88
2022/12/06 03:36:15;;;;;;;7.87;6.27;;;1.40;99.90;;;;;;5045945;28;20288;-88
2022/12/06 03:38:49;;;;;;;6.90;6.07;;;1.30;99.90;;;;;;5049055;28;20260;-89
2022/12/06 03:41:19;;;;;;;7.77;6.20;;;1.20;99.90;;;;;;5052936;28;20205;-89
2022/12/06 03:43:46;;;;;;;7.13;5.90;;;1.30;99.90;;;;;;5047029;28;20236;-88
2022/12/06 03:46:15;;;;;;;7.93;6.20;;;1.30;99.90;;;;;;5032989;28;20207;-89
2022/12/06 03:48:48;;;;;;;7.37;5.77;;;1.40;99.90;;;;;;5035342;28;20676;-88
2022/12/06 03:51:20;;;;;;;6.93;5.63;;;1.40;99.90;;;;;;5047778;28;20651;-89
2022/12/06 03:53:48;;;;;;;7.47;6.27;;;1.40;99.90;;;;;;5051188;28;20225;-88
2022/12/06 03:56:16;;;;;;;7.83;6.40;;;1.40;99.90;;;;;;5045652;28;20194;-88
2022/12/06 03:58:42;;;;;;;7.33;5.73;;;1.40;99.90;;;;;;5042722;28;20646;-88
2022/12/06 04:01:10;;;;;;;9.07;5.90;;;1.40;99.90;;;;;;5052284;28;20202;-88
2022/12/06 04:03:36;;;;;;;7.00;5.70;;;1.60;99.90;;;;;;5052874;28;20228;-88
2022/12/06 04:06:07;;;;;;;7.60;5.67;;;1.70;99.90;;;;;;5050545;28;20628;-89
2022/12/06 04:08:34;;;;;;;7.20;5.93;;;1.70;99.90;;;;;;5052880;28;20202;-89
2022/12/06 04:11:02;;;;;;;7.13;6.00;;;1.70;99.90;;;;;;5055612;28;20205;-88
2022/12/06 04:13:29;;;;;;;7.40;5.70;;;1.60;99.90;;;;;;5050399;28;20206;-89
2022/12/06 04:15:58;;;;;;;8.17;6.10;;;1.50;99.90;;;;;;5059109;28;20219;-88
2022/12/06 04:18:25;;;;;;;7.77;6.07;;;1.50;99.90;;;;;;5053505;28;20194;-88
2022/12/06 04:23:47;;;;;;;7.17;6.00;;;1.40;99.90;;;;;;5042524;28;20762;-88
2022/12/06 04:26:16;;;;;;;7.93;5.70;;;1.40;99.90;;;;;;5052817;28;21077;-89
2022/12/06 04:39:42;;;;;;;8.33;5.73;;;1.20;99.90;;;;;;5055047;28;20581;-89
2022/12/06 04:44:53;;;;;;;7.83;5.90;;;1.20;99.90;;;;;;5047157;28;20229;-89
2022/12/06 04:47:20;;;;;;;6.57;5.50;;;1.20;99.90;;;;;;5031707;28;20292;-89
2022/12/06 04:49:47;;;;;;;10.00;5.93;;;1.30;99.90;;;;;;5048237;28;20212;-88
2022/12/06 04:52:14;;;;;;;8.67;5.70;;;1.20;99.90;;;;;;5051677;28;20208;-88
2022/12/06 04:54:43;;;;;;;8.37;6.60;;;1.20;99.90;;;;;;5054936;28;20782;-91
2022/12/06 04:57:12;;;;;;;7.57;6.17;;;1.20;99.90;;;;;;5050938;28;20212;-89
2022/12/06 04:59:41;;;;;;;8.10;6.40;;;1.10;99.90;;;;;;5037326;28;20213;-89
2022/12/06 05:02:11;;;;;;;7.50;6.43;;;1.10;99.90;;;;;;5053725;28;20296;-88
2022/12/06 05:04:38;;;;;;;8.37;6.37;;;1.10;99.90;;;;;;5057953;28;20248;-88
2022/12/06 05:07:05;;;;;;;9.83;6.60;;;1.10;99.90;;;;;;5034814;28;20198;-89
2022/12/06 05:09:32;;;;;;;8.10;6.23;;;1.10;99.90;;;;;;5051775;28;20205;-88
2022/12/06 05:12:01;;;;;;;8.50;6.43;;;1.10;99.90;;;;;;5046745;28;20297;-88
2022/12/06 05:14:28;;;;;;;7.53;6.07;;;1.10;99.90;;;;;;5050871;28;20569;-88
2022/12/06 05:16:55;;;;;;;9.63;6.90;;;1.20;99.90;;;;;;5034318;28;20578;-87
2022/12/06 05:19:22;;;;;;;7.87;6.27;;;1.20;99.90;;;;;;5037189;28;20272;-88
2022/12/06 05:21:49;;;;;;;9.37;6.80;;;1.30;99.90;;;;;;5050635;28;20210;-89
2022/12/06 05:24:15;;;;;;;9.80;6.87;;;1.30;99.90;;;;;;5055148;28;20662;-89
2022/12/06 05:26:44;;;;;;;9.70;6.47;;;1.30;99.90;;;;;;5049684;28;20206;-87
2022/12/06 05:29:12;;;;;;;10.47;7.20;;;1.20;99.90;;;;;;5058085;28;20232;-89
2022/12/06 05:31:39;;;;;;;8.73;6.77;;;1.20;99.90;;;;;;5050198;28;20204;-88
2022/12/06 05:34:10;;;;;;;8.43;6.43;;;1.20;99.90;;;;;;5052234;28;20300;-88
2022/12/06 05:36:37;;;;;;;8.60;7.07;;;1.20;99.90;;;;;;5050733;28;20205;-88
2022/12/06 05:39:04;;;;;;;8.70;6.73;;;1.10;99.90;;;;;;5033930;28;20276;-90
2022/12/06 05:41:31;;;;;;;9.50;7.00;;;1.10;99.90;;;;;;5048232;28;20217;-88
2022/12/06 05:44:04;;;;;;;9.87;7.33;;;1.10;99.90;;;;;;5033482;28;20308;-91
2022/12/06 05:46:32;;;;;;;8.67;6.97;;;1.10;99.90;;;;;;5056633;28;20206;-88
2022/12/06 05:48:59;;;;;;;10.17;8.10;;;1.10;99.90;;;;;;5041331;28;20301;-87
2022/12/06 05:51:26;;;;;;;10.87;8.00;;;1.10;99.90;;;;;;5051328;28;20202;-87
2022/12/06 05:53:53;;;;;;;8.60;7.03;;;1.10;99.90;;;;;;5046575;28;20320;-85
2022/12/06 05:56:20;;;;;;;10.63;7.80;;;1.20;99.90;;;;;;5049706;28;20206;-86
2022/12/06 05:58:47;;;;;;;11.20;7.63;;;1.20;99.90;;;;;;5047453;28;20963;-87
2022/12/06 06:01:14;;;;;;;10.60;7.73;;;1.20;99.90;;;;;;5048934;28;20205;-84
2022/12/06 06:04:00;;;;;;;9.83;7.23;;;1.20;99.90;;;;;;5054802;28;20225;-86
2022/12/06 06:06:27;;;;;;;10.33;7.30;;;1.20;99.90;;;;;;5042812;28;20210;-86
2022/12/06 06:08:54;;;;;;;11.20;7.23;;;1.20;99.90;;;;;;5048045;28;20198;-86
2022/12/06 06:11:22;;;;;;;10.60;7.47;;;1.10;99.90;;;;;;5052073;28;20573;-85
2022/12/06 06:13:49;;;;;;;10.53;8.20;;;1.10;99.90;;;;;;5031130;28;20687;-88
2022/12/06 06:16:16;;;;;;;10.57;8.23;;;1.10;99.90;;;;;;5046157;28;20202;-88
2022/12/06 06:18:47;;;;;;;10.60;7.90;;;1.10;99.90;;;;;;5049040;28;20563;-89
2022/12/06 06:21:40;;;;;;;11.40;8.53;;;1.20;99.90;;;;;;5052133;28;20201;-88
2022/12/06 06:24:07;;;;;;;13.00;8.83;;;1.20;99.90;;;;;;5049338;28;20628;-84
2022/12/06 06:26:34;;;;;;;12.93;9.40;;;1.20;99.90;;;;;;5049059;28;20205;-85
2022/12/06 06:29:01;;;;;;;13.90;9.10;;;1.10;99.90;;;;;;5028866;28;20293;-85
2022/12/06 06:31:28;;;;;;;14.37;9.20;;;1.10;99.90;;;;;;5048503;28;20301;-84
2022/12/06 06:33:55;;;;;;;13.33;9.17;;;1.20;99.90;;;;;;5046944;28;20320;-86
2022/12/06 06:36:22;;;;;;;13.43;9.67;;;1.20;99.90;;;;;;5024317;28;20213;-85
2022/12/06 06:38:53;;;;;;;16.90;10.93;;;1.30;99.90;;;;;;5054693;28;20564;-85
2022/12/06 06:41:20;;;;;;;17.07;11.60;;;1.20;99.90;;;;;;5045679;28;20205;-85
2022/12/06 06:43:47;;;;;;;17.50;10.30;;;1.20;99.90;;;;;;5043796;28;20252;-87
2022/12/06 06:46:14;;;;;;;14.17;9.40;;;1.40;99.90;;;;;;5047790;28;20288;-86
2022/12/06 06:48:41;;;;;;;14.97;9.93;;;1.40;99.90;;;;;;5050058;28;20198;-86
2022/12/06 06:51:09;;;;;;;14.37;9.93;;;1.40;99.90;;;;;;5032632;28;20662;-86
2022/12/06 06:53:36;;;;;;;14.17;10.10;;;1.40;99.90;;;;;;5051063;28;20223;-85
2022/12/06 06:56:05;;;;;;;15.60;10.43;;;1.50;99.90;;;;;;5028825;28;20206;-89
2022/12/06 06:58:32;;;;;;;18.50;11.93;;;1.60;99.90;;;;;;5045114;28;20293;-88
2022/12/06 07:01:01;;;;;;;15.40;10.67;;;1.70;99.90;;;;;;5049521;28;20248;-86
2022/12/06 07:03:28;;;;;;;12.80;9.67;;;1.80;99.90;;;;;;5047783;28;20297;-88
2022/12/06 07:05:57;;;;;;;16.37;10.70;;;1.80;99.90;;;;;;5046065;28;20206;-87
2022/12/06 07:08:25;;;;;;;16.53;10.53;;;1.80;99.90;;;;;;5048510;28;20268;-88
2022/12/06 07:10:53;;;;;;;15.20;10.33;;;1.80;99.90;;;;;;5029003;28;20208;-88
2022/12/06 07:13:23;;;;;;;15.13;10.93;;;1.90;99.90;;;;;;5049946;28;20202;-87
2022/12/06 07:15:50;;;;;;;16.13;10.60;;;1.90;99.90;;;;;;5034087;28;20259;-87
2022/12/06 07:18:18;;;;;;;17.77;11.43;;;2.00;99.90;;;;;;5050803;28;20201;-87
2022/12/06 07:20:46;;;;;;;17.37;11.13;;;2.00;99.90;;;;;;5036883;28;20256;-88
2022/12/06 07:23:13;;;;;;;14.37;10.73;;;2.00;99.90;;;;;;5060290;28;20705;-88
2022/12/06 07:25:40;;;;;;;14.97;11.13;;;2.10;99.90;;;;;;5051066;28;20222;-89
2022/12/06 07:28:07;;;;;;;17.07;11.27;;;2.10;99.90;;;;;;5058826;28;20214;-89
2022/12/06 07:30:35;;;;;;;15.17;10.63;;;2.10;99.90;;;;;;5046904;28;20296;-88
2022/12/06 07:33:02;;;;;;;14.53;10.33;;;2.10;99.90;;;;;;5057365;28;20580;-88
2022/12/06 07:35:29;;;;;;;16.63;11.17;;;2.20;99.90;;;;;;5057129;28;20205;-87
2022/12/06 07:37:56;;;;;;;14.73;10.97;;;2.20;99.90;;;;;;5049434;28;20217;-88
2022/12/06 07:40:23;;;;;;;18.17;11.53;;;2.30;99.90;;;;;;5039761;28;20290;-88
2022/12/06 07:45:37;;;;;;;14.53;10.37;;;2.20;99.90;;;;;;5060639;28;20378;-88
2022/12/06 07:48:05;;;;;;;17.40;11.47;;;2.20;99.90;;;;;;5058876;28;20316;-87
2022/12/06 07:50:32;;;;;;;15.47;10.80;;;2.20;99.90;;;;;;5058841;28;20212;-88
2022/12/06 07:52:59;;;;;;;15.73;11.17;;;2.20;99.90;;;;;;5060488;28;20210;-88
2022/12/06 07:55:26;;;;;;;17.20;10.87;;;2.20;99.90;;;;;;5060296;28;20197;-87
2022/12/06 07:57:53;;;;;;;15.17;11.23;;;2.20;99.90;;;;;;5053136;28;20214;-88
2022/12/06 08:00:21;;;;;;;15.23;10.63;;;2.20;99.90;;;;;;5066856;28;20211;-89
2022/12/06 08:02:49;;;;;;;17.03;11.20;;;2.30;99.90;;;;;;5058145;28;20202;-87
2022/12/06 08:05:16;;;;;;;18.40;11.43;;;2.30;99.90;;;;;;5063333;28;20225;-88
2022/12/06 08:07:43;;;;;;;17.63;11.20;;;2.40;99.90;;;;;;5040883;28;20348;-88
2022/12/06 08:10:10;;;;;;;21.27;11.77;;;2.50;99.90;;;;;;5057522;28;20716;-88
2022/12/06 08:12:37;;;;;;;16.63;10.53;;;2.50;99.90;;;;;;5054427;28;20209;-88
2022/12/06 08:15:11;;;;;;;16.77;11.10;;;2.60;99.90;;;;;;5041995;28;20584;-88
2022/12/06 08:17:40;;;;;;;18.00;11.40;;;2.60;99.90;;;;;;5039131;28;20198;-88
2022/12/06 08:20:11;;;;;;;14.60;10.37;;;2.70;99.90;;;;;;5062653;28;20198;-88
2022/12/06 08:22:38;;;;;;;17.17;10.83;;;2.90;99.90;;;;;;5055462;28;20281;-88
2022/12/06 08:25:05;;;;;;;13.67;10.43;;;2.90;99.80;;;;;;5058063;28;20588;-88
2022/12/06 08:27:32;;;;;;;14.03;10.03;;;3.10;99.90;;;;;;5038347;28;20654;-89
2022/12/06 08:29:59;;;;;;;13.47;10.17;;;3.30;99.90;;;;;;5054421;28;20295;-88
2022/12/06 08:32:26;;;;;;;14.20;10.37;;;3.60;99.90;;;;;;5052858;28;20202;-88
2022/12/06 08:34:53;;;;;;;14.43;10.27;;;3.90;99.50;;;;;;5056773;28;20683;-88
2022/12/06 08:37:22;;;;;;;13.03;9.37;;;4.30;98.60;;;;;;5041704;28;20201;-88
2022/12/06 08:39:58;;;;;;;13.90;9.37;;;4.70;96.70;;;;;;5036647;28;20259;-87
2022/12/06 08:42:25;;;;;;;11.27;8.75;;;5.30;95.70;;;;;;5047555;28;20737;-88
2022/12/06 08:44:53;;;;;;;11.73;8.73;;;5.80;94.20;;;;;;5031735;28;20670;-89
2022/12/06 08:47:20;;;;;;;9.85;8.13;;;6.00;91.50;;;;;;5050322;28;20206;-88
2022/12/06 08:49:52;;;;;;;10.45;8.48;;;5.80;91.70;;;;;;5051601;28;20201;-88
2022/12/06 08:52:20;;;;;;;11.82;8.32;;;5.60;92.50;;;;;;5054485;28;20289;-88
2022/12/06 08:57:31;;;;;;;12.63;9.10;;;5.00;94.50;;;;;;5032002;28;20202;-88
2022/12/06 08:59:58;;;;;;;11.73;8.63;;;4.80;94.60;;;;;;5054040;28;20328;-88
2022/12/06 09:02:26;;;;;;;10.63;8.43;;;4.70;95.30;;;;;;5055217;28;20200;-88
2022/12/06 09:04:53;;;;;;;12.30;8.95;;;4.60;95.00;;;;;;5054287;28;20230;-87
2022/12/06 09:07:21;;;;;;;14.55;8.60;;;4.60;95.80;;;;;;5055541;28;20344;-88
2022/12/06 09:09:48;;;;;;;12.53;9.13;;;4.80;95.10;;;;;;5054221;28;20213;-88
2022/12/06 09:12:16;;;;;;;11.13;8.83;;;4.80;95.00;;;;;;5057386;28;20284;-88
2022/12/06 09:14:43;;;;;;;11.67;8.37;;;4.80;95.00;;;;;;5054241;28;20198;-89
2022/12/06 09:17:10;;;;;;;10.77;8.80;;;4.80;94.80;;;;;;5019302;28;20302;-89
2022/12/06 09:19:37;;;;;;;10.43;8.40;;;5.00;94.70;;;;;;5036562;28;20198;-88
2022/12/06 09:22:04;;;;;;;12.23;8.33;;;4.80;94.30;;;;;;5056097;28;20209;-88
2022/12/06 09:24:33;;;;;;;12.07;8.43;;;4.60;95.00;;;;;;5048802;28;20261;-88
2022/12/06 09:27:00;;;;;;;12.57;8.67;;;4.50;95.00;;;;;;5045686;28;20194;-88
2022/12/06 09:29:27;;;;;;;10.00;8.50;;;4.40;95.80;;;;;;5060750;28;20292;-88
2022/12/06 09:32:04;;;;;;;14.10;8.63;;;4.40;95.80;;;;;;5049771;28;20203;-88
2022/12/06 09:34:58;;;;;;;10.83;8.50;;;4.30;96.20;;;;;;5049262;28;20206;-88
2022/12/06 09:37:25;;;;;;;11.27;8.40;;;4.30;96.30;;;;;;5053104;28;20285;-88
2022/12/06 09:40:17;;;;;;;10.87;8.40;;;4.30;96.60;;;;;;5052211;28;20223;-88
2022/12/06 09:43:40;;;;;;;11.27;8.70;;;4.40;97.00;;;;;;5028085;28;20202;-88
2022/12/06 09:46:22;;;;;;;12.20;8.67;;;4.50;96.70;;;;;;5049086;28;20236;-88
2022/12/06 09:49:26;;;;;;;9.57;7.67;;;4.50;96.50;;;;;;5052109;28;20218;-88
2022/12/06 09:52:27;;;;;;;9.23;7.83;;;4.40;96.20;;;;;;5057917;28;20240;-87
2022/12/06 09:58:30;;;;;;;8.57;6.77;;;4.50;96.40;;;;;;5049993;28;20665;-87
2022/12/06 10:01:32;;;;;;;14.27;7.87;;;4.50;96.30;;;;;;5048625;28;20650;-87
2022/12/06 10:04:43;;;;;;;9.87;7.43;;;4.60;96.00;;;;;;5062076;28;20291;-88
2022/12/06 10:10:58;;;;;;;8.20;6.77;;;4.70;95.20;;;;;;5045651;28;20181;-88
2022/12/06 10:13:49;;;;;;;9.97;7.30;;;4.70;95.70;;;;;;5048962;28;20280;-88
2022/12/06 10:16:24;;;;;;;8.13;6.67;;;4.50;95.40;;;;;;5055363;28;20205;-88
2022/12/06 10:22:52;;;;;;;7.67;6.10;;;4.40;95.90;;;;;;5046072;28;20269;-88
2022/12/06 10:25:26;;;;;;;8.87;6.90;;;4.50;95.80;;;;;;5047529;28;20222;-88
2022/12/06 10:28:40;;;;;;;8.07;6.43;;;4.50;96.20;;;;;;5052730;28;20197;-88
2022/12/06 10:31:22;;;;;;;8.87;6.33;;;4.60;96.50;;;;;;5051258;28;20209;-88
2022/12/06 10:41:01;;;;;;;7.73;5.70;;;4.70;96.10;;;;;;5051430;28;20226;-88
2022/12/06 10:43:52;;;;;;;7.30;6.00;;;4.50;96.00;;;;;;5050485;28;20206;-88
2022/12/06 11:03:50;;;;;;;5.90;4.90;;;4.80;95.00;;;;;;5041721;28;20192;-88
2022/12/06 11:06:38;;;;;;;8.27;5.00;;;4.70;96.00;;;;;;5045443;28;20211;-88
2022/12/06 11:12:32;;;;;;;6.13;5.00;;;4.60;96.00;;;;;;5048761;28;20201;-88
2022/12/06 11:19:01;;;;;;;4.67;4.13;;;4.70;95.50;;;;;;5054205;28;20208;-87
2022/12/06 11:21:48;;;;;;;6.53;4.23;;;4.60;95.30;;;;;;5049588;28;20276;-88
2022/12/06 11:24:32;;;;;;;4.90;4.13;;;4.70;95.40;;;;;;5045844;28;20531;-87
2022/12/06 11:27:14;;;;;;;5.77;4.53;;;4.70;96.10;;;;;;5051163;28;21376;-88
2022/12/06 11:30:13;;;;;;;5.93;4.47;;;4.70;95.60;;;;;;5057250;28;20209;-88
2022/12/06 11:32:41;;;;;;;5.60;4.10;;;4.60;95.80;;;;;;5045775;28;20283;-89
2022/12/06 11:35:14;;;;;;;6.57;4.17;;;4.50;96.30;;;;;;5049537;28;20201;-88
2022/12/06 11:37:42;;;;;;;6.30;4.17;;;4.50;96.70;;;;;;5050417;28;20573;-88
2022/12/06 11:40:21;;;;;;;4.10;3.70;;;4.50;96.80;;;;;;5055659;28;20205;-89
2022/12/06 11:43:06;;;;;;;4.77;3.70;;;4.50;96.70;;;;;;5050198;28;20241;-88
2022/12/06 11:45:38;;;;;;;4.57;3.60;;;4.40;96.60;;;;;;5045651;28;20233;-89
2022/12/06 11:48:14;;;;;;;4.00;3.60;;;4.50;97.00;;;;;;5052321;28;20214;-88
2022/12/06 11:50:42;;;;;;;4.20;3.80;;;4.70;96.10;;;;;;5046650;28;20351;-89
2022/12/06 11:53:17;;;;;;;5.10;3.67;;;4.70;96.00;;;;;;5045389;28;20316;-88
2022/12/06 11:55:49;;;;;;;4.37;3.40;;;4.60;96.40;;;;;;5051838;28;20238;-89
2022/12/06 11:58:24;;;;;;;6.93;3.60;;;4.50;96.30;;;;;;5047795;28;20310;-88
2022/12/06 12:01:01;;;;;;;5.80;3.37;;;4.70;96.10;;;;;;5047481;28;20205;-89
2022/12/06 12:03:31;;;;;;;4.67;3.90;;;4.70;95.70;;;;;;5042568;28;20210;-88
2022/12/06 12:06:09;;;;;;;4.50;3.73;;;4.80;95.00;;;;;;5054165;28;20222;-88
2022/12/06 12:08:37;;;;;;;3.58;3.28;;;4.90;94.80;;;;;;5047107;28;20202;-88
2022/12/06 12:11:05;;;;;;;5.70;4.03;;;5.00;94.60;;;;;;5052594;28;20651;-88
2022/12/06 12:13:45;;;;;;;6.20;4.20;;;5.10;94.90;;;;;;5049679;28;20242;-88
2022/12/06 12:16:33;;;;;;;5.20;4.13;;;5.10;95.10;;;;;;5052826;28;20304;-88
2022/12/06 12:19:32;;;;;;;5.00;3.67;;;5.00;95.00;;;;;;5008186;28;20599;-88
2022/12/06 12:22:16;;;;;;;6.67;3.83;;;5.00;95.10;;;;;;5007786;28;20209;-88
2022/12/06 12:25:22;;;;;;;7.90;4.30;;;5.20;93.30;;;;;;4958559;28;20712;-88
2022/12/06 12:27:50;;;;;;;5.13;4.17;;;5.00;94.50;;;;;;4971788;28;20239;-88
2022/12/06 12:30:21;;;;;;;7.17;4.00;;;4.90;94.60;;;;;;4971631;28;20213;-88
2022/12/06 12:32:52;;;;;;;4.77;4.07;;;4.80;95.00;;;;;;4970387;28;20286;-88
2022/12/06 12:35:27;;;;;;;5.00;3.73;;;4.70;95.00;;;;;;4972072;28;20204;-88
2022/12/06 12:37:57;;;;;;;5.70;4.23;;;4.60;94.90;;;;;;4966939;28;20287;-88
2022/12/06 12:40:26;;;;;;;10.37;5.00;;;4.70;95.00;;;;;;4955833;28;20204;-88
2022/12/06 12:42:59;;;;;;;5.30;3.88;;;4.70;95.00;;;;;;4981844;28;20213;-89
2022/12/06 12:45:28;;;;;;;9.83;4.50;;;4.60;95.00;;;;;;5020816;28;20650;-89
2022/12/06 12:47:58;;;;;;;7.93;4.20;;;4.70;95.00;;;;;;5014387;28;20659;-88
2022/12/06 12:50:25;;;;;;;6.17;4.00;;;4.70;95.00;;;;;;5035349;28;20584;-88
2022/12/06 12:52:52;;;;;;;6.23;4.27;;;4.80;95.00;;;;;;5058333;28;20757;-88
2022/12/06 12:55:22;;;;;;;5.17;4.10;;;4.80;94.10;;;;;;5057573;28;20553;-88
2022/12/06 12:57:51;;;;;;;5.97;3.63;;;4.90;93.80;;;;;;5056590;28;21315;-88
2022/12/06 13:00:20;;;;;;;6.33;4.13;;;5.00;93.50;;;;;;5034680;28;20288;-88
2022/12/06 13:02:51;;;;;;;4.85;4.10;;;5.00;93.40;;;;;;5057156;28;20582;-88
2022/12/06 13:05:23;;;;;;;5.33;3.87;;;5.00;93.50;;;;;;5054643;28;20620;-88
2022/12/06 13:07:54;;;;;;;6.20;4.10;;;5.10;93.80;;;;;;5040906;28;20210;-89
2022/12/06 13:10:27;;;;;;;6.07;4.23;;;5.20;93.50;;;;;;5054182;28;20206;-89
2022/12/06 13:12:58;;;;;;;8.30;4.10;;;5.20;93.20;;;;;;5052774;28;20202;-88
2022/12/06 13:15:32;;;;;;;6.27;4.40;;;5.10;93.70;;;;;;5051512;28;20206;-89
2022/12/06 13:18:05;;;;;;;5.47;4.47;;;5.00;94.20;;;;;;5057159;28;20201;-88
2022/12/06 13:20:35;;;;;;;7.57;4.33;;;5.00;95.00;;;;;;5051413;28;20662;-88
2022/12/06 13:23:07;;;;;;;8.30;4.45;;;4.90;94.80;;;;;;5059447;28;20284;-89
2022/12/06 13:25:34;;;;;;;7.55;4.40;;;4.90;94.30;;;;;;5050806;28;20230;-88
2022/12/06 13:28:04;;;;;;;4.68;3.88;;;4.80;95.00;;;;;;5052709;28;20297;-88
2022/12/06 13:30:33;;;;;;;5.07;4.10;;;5.00;95.10;;;;;;5032039;28;20635;-88
2022/12/06 13:33:05;;;;;;;4.97;4.30;;;5.20;94.50;;;;;;5051471;28;20662;-89
2022/12/06 13:35:37;;;;;;;5.53;4.30;;;5.20;94.50;;;;;;5032015;28;20640;-90
2022/12/06 13:38:24;;;;;;;8.73;4.60;;;5.20;94.90;;;;;;5053487;28;20208;-88
2022/12/06 13:40:52;;;;;;;6.43;5.10;;;5.20;94.80;;;;;;5055655;28;20297;-88
2022/12/06 13:43:58;;;;;;;6.30;4.50;;;5.30;94.20;;;;;;5060510;28;20676;-88
2022/12/06 13:46:30;;;;;;;8.87;4.83;;;5.20;94.00;;;;;;5049172;28;20420;-88
2022/12/06 13:48:59;;;;;;;5.57;4.40;;;5.10;94.00;;;;;;5055034;28;20224;-88
2022/12/06 13:51:50;;;;;;;9.73;4.87;;;5.10;94.40;;;;;;5055998;28;20198;-88
2022/12/06 13:54:37;;;;;;;7.85;4.60;;;5.20;94.30;;;;;;5053464;28;20226;-88
2022/12/06 13:57:29;;;;;;;5.97;4.77;;;5.20;94.40;;;;;;5037513;28;20288;-88
2022/12/06 13:59:56;;;;;;;8.17;4.33;;;5.20;95.10;;;;;;5051067;28;20234;-88
2022/12/06 14:02:46;;;;;;;10.13;4.50;;;5.40;94.40;;;;;;5056105;28;20201;-88
2022/12/06 14:05:50;;;;;;;5.40;4.00;;;5.40;94.10;;;;;;5058576;28;20205;-89
2022/12/06 14:08:19;;;;;;;4.50;3.60;;;5.40;93.20;;;;;;5058412;28;20288;-89
2022/12/06 14:10:46;;;;;;;4.90;3.43;;;5.30;93.00;;;;;;5056458;28;20205;-88
2022/12/06 14:13:18;;;;;;;6.00;3.47;;;5.30;92.40;;;;;;5058407;28;20292;-89
2022/12/06 14:15:48;;;;;;;4.40;3.27;;;5.20;91.60;;;;;;5049722;28;20281;-88
2022/12/06 14:18:21;;;;;;;6.17;3.73;;;5.30;91.50;;;;;;5043795;28;20280;-90
2022/12/06 14:21:00;;;;;;;4.50;3.70;;;5.30;91.80;;;;;;5040314;28;20291;-93
2022/12/06 14:29:52;;;;;;;5.87;4.33;;;5.00;94.00;;;;;;5048060;28;20299;-89